Time;durP1;ratioP1;P1;durP2;ratioP2;P2;SDS_P1;SDS_P2;PMS_P1;PMS_P2;Temp;Humidity;BMP_temperature;BMP_pressure;BME280_temperature;BME280_humidity;BME280_pressure;Samples;Min_cycle;Max_cycle;Signal;HPM_P1;HPM_P2
2022/03/22 00:02:18;;;;;;;22.38;9.18;;;8.40;98.30;;;;;;5044480;28;20037;-69
2022/03/22 00:04:44;;;;;;;16.80;7.85;;;8.30;98.50;;;;;;5044805;28;20108;-69
2022/03/22 00:07:10;;;;;;;12.35;7.07;;;8.30;98.50;;;;;;5044398;28;20117;-70
2022/03/22 00:09:36;;;;;;;17.42;7.68;;;8.30;98.60;;;;;;5044364;28;20041;-70
2022/03/22 00:12:02;;;;;;;31.80;7.40;;;8.30;98.20;;;;;;5031557;28;20025;-69
2022/03/22 00:14:30;;;;;;;17.80;7.57;;;8.30;98.70;;;;;;5024688;28;20061;-70
2022/03/22 00:16:55;;;;;;;19.67;8.00;;;8.20;98.50;;;;;;5024667;28;20033;-70
2022/03/22 00:19:22;;;;;;;20.50;7.97;;;8.20;98.80;;;;;;5024814;28;20026;-70
2022/03/22 00:21:48;;;;;;;21.25;8.27;;;8.20;98.70;;;;;;5039755;28;20037;-69
2022/03/22 00:24:22;;;;;;;21.95;8.23;;;8.10;99.00;;;;;;5024763;28;20022;-71
2022/03/22 00:26:55;;;;;;;18.55;8.07;;;8.10;99.10;;;;;;5025856;28;20116;-71
2022/03/22 00:29:22;;;;;;;19.60;7.72;;;8.00;99.40;;;;;;5043115;28;20108;-71
2022/03/22 00:31:48;;;;;;;18.80;8.55;;;8.00;99.40;;;;;;5035113;28;20036;-70
2022/03/22 00:34:13;;;;;;;16.58;7.32;;;8.00;99.10;;;;;;5032683;28;20055;-69
2022/03/22 00:36:41;;;;;;;17.38;7.85;;;8.00;99.10;;;;;;5030779;28;20053;-69
2022/03/22 00:39:07;;;;;;;19.85;8.27;;;8.00;99.60;;;;;;5028713;28;20032;-70
2022/03/22 00:41:33;;;;;;;15.27;7.38;;;7.90;99.30;;;;;;5042421;28;20093;-70
2022/03/22 00:43:58;;;;;;;22.17;8.10;;;8.00;99.40;;;;;;5028040;28;20526;-69
2022/03/22 00:46:25;;;;;;;18.42;7.88;;;7.90;99.70;;;;;;5028143;28;20046;-71
2022/03/22 00:48:51;;;;;;;17.30;7.82;;;7.90;99.70;;;;;;5027831;28;20110;-71
2022/03/22 00:51:17;;;;;;;26.10;8.02;;;7.80;99.60;;;;;;5028443;28;20038;-70
2022/03/22 00:53:45;;;;;;;23.23;9.05;;;7.80;99.40;;;;;;5027982;28;20058;-69
2022/03/22 00:56:10;;;;;;;17.33;8.75;;;7.80;99.50;;;;;;5027692;28;20548;-71
2022/03/22 00:58:36;;;;;;;18.90;7.68;;;7.80;99.40;;;;;;5026933;28;20049;-71
2022/03/22 01:01:11;;;;;;;24.00;7.63;;;7.80;99.90;;;;;;5037532;28;20108;-71
2022/03/22 01:03:38;;;;;;;17.60;8.25;;;7.70;99.90;;;;;;5046976;28;20030;-71
2022/03/22 01:06:04;;;;;;;19.80;8.95;;;7.70;99.90;;;;;;5046490;28;20025;-69
2022/03/22 01:08:30;;;;;;;18.50;8.18;;;7.60;99.90;;;;;;5047181;28;20469;-69
2022/03/22 01:10:55;;;;;;;18.83;7.88;;;7.60;99.90;;;;;;5046984;28;20032;-69
2022/03/22 01:13:24;;;;;;;21.95;7.53;;;7.60;99.90;;;;;;5046315;28;20029;-70
2022/03/22 01:15:51;;;;;;;14.85;7.80;;;7.50;99.90;;;;;;5046484;28;20029;-69
2022/03/22 01:18:17;;;;;;;18.13;8.93;;;7.50;99.90;;;;;;5045855;28;20625;-70
2022/03/22 01:20:49;;;;;;;19.25;8.30;;;7.50;99.90;;;;;;5047414;28;20026;-71
2022/03/22 01:23:19;;;;;;;21.08;8.77;;;7.50;99.90;;;;;;5045788;28;20310;-71
2022/03/22 01:25:45;;;;;;;16.23;7.70;;;7.50;99.90;;;;;;5034181;28;20466;-70
2022/03/22 01:28:12;;;;;;;20.48;8.65;;;7.50;99.90;;;;;;5026980;28;20056;-69
2022/03/22 01:30:40;;;;;;;17.77;7.40;;;7.40;99.90;;;;;;5028050;28;20022;-70
2022/03/22 01:33:09;;;;;;;26.73;8.10;;;7.40;99.90;;;;;;5044969;28;20056;-69
2022/03/22 01:35:34;;;;;;;18.10;7.55;;;7.30;99.90;;;;;;5047142;28;20026;-70
2022/03/22 01:38:00;;;;;;;22.00;8.18;;;7.30;99.90;;;;;;5039331;28;20030;-71
2022/03/22 01:40:27;;;;;;;20.85;7.88;;;7.30;99.90;;;;;;5037336;28;20038;-70
2022/03/22 01:43:00;;;;;;;19.42;7.15;;;7.30;99.90;;;;;;5047141;28;20030;-71
2022/03/22 01:45:28;;;;;;;20.02;8.68;;;7.30;99.90;;;;;;5045361;28;20034;-72
2022/03/22 01:47:59;;;;;;;21.10;8.02;;;7.20;99.90;;;;;;5046000;28;20101;-70
2022/03/22 01:50:25;;;;;;;15.57;6.47;;;7.20;99.90;;;;;;5046595;28;20478;-71
2022/03/22 01:52:51;;;;;;;17.52;6.97;;;7.20;99.90;;;;;;5046928;28;20026;-70
2022/03/22 01:55:20;;;;;;;18.58;8.10;;;7.20;99.90;;;;;;5046968;28;20049;-70
2022/03/22 01:57:47;;;;;;;15.18;7.07;;;7.10;99.90;;;;;;5046550;28;20056;-71
2022/03/22 02:00:20;;;;;;;13.45;6.68;;;7.10;99.90;;;;;;5046513;28;20030;-70
2022/03/22 02:05:56;;;;;;;18.50;7.50;;;7.10;99.90;;;;;;5046355;28;20179;-70
2022/03/22 02:08:27;;;;;;;22.27;8.40;;;7.00;99.90;;;;;;5045281;28;20052;-70
2022/03/22 02:10:55;;;;;;;20.88;7.65;;;7.00;99.90;;;;;;5045672;28;20025;-71
2022/03/22 02:13:21;;;;;;;20.02;8.50;;;7.00;99.90;;;;;;5038826;28;20116;-70
2022/03/22 02:15:51;;;;;;;22.65;8.80;;;7.00;99.90;;;;;;5044877;28;20466;-70
2022/03/22 02:18:17;;;;;;;15.15;7.30;;;6.90;99.90;;;;;;5045605;28;20025;-70
2022/03/22 02:20:43;;;;;;;30.23;8.10;;;6.90;99.90;;;;;;5045210;28;20428;-69
2022/03/22 02:23:28;;;;;;;19.00;7.15;;;6.90;99.90;;;;;;5046331;28;20017;-70
2022/03/22 02:25:54;;;;;;;18.90;7.60;;;6.90;99.90;;;;;;5045959;28;20033;-71
2022/03/22 02:28:21;;;;;;;16.20;7.72;;;6.90;99.90;;;;;;5046165;28;20033;-69
2022/03/22 02:30:47;;;;;;;24.08;8.73;;;6.80;99.90;;;;;;5040005;28;20034;-70
2022/03/22 02:33:14;;;;;;;25.02;8.80;;;6.80;99.90;;;;;;5039095;28;20025;-71
2022/03/22 02:35:40;;;;;;;21.42;8.10;;;6.70;99.90;;;;;;5042815;28;20401;-70
2022/03/22 02:38:07;;;;;;;22.50;8.18;;;6.70;99.90;;;;;;5045970;28;20021;-70
2022/03/22 02:40:32;;;;;;;18.55;7.95;;;6.60;99.90;;;;;;5043106;28;20021;-70
2022/03/22 02:43:00;;;;;;;25.50;8.70;;;6.70;99.90;;;;;;5045008;28;20081;-70
2022/03/22 02:45:28;;;;;;;22.83;6.65;;;6.70;99.90;;;;;;5045922;28;20040;-71
2022/03/22 02:47:54;;;;;;;22.55;7.57;;;6.70;99.90;;;;;;5045002;28;20056;-73
2022/03/22 02:50:21;;;;;;;18.88;7.80;;;6.60;99.90;;;;;;5045916;28;20037;-70
2022/03/22 02:52:50;;;;;;;17.20;7.75;;;6.60;99.90;;;;;;5045675;28;20045;-71
2022/03/22 02:55:16;;;;;;;20.60;7.43;;;6.60;99.90;;;;;;5045248;28;20055;-70
2022/03/22 02:57:43;;;;;;;17.75;7.75;;;6.60;99.90;;;;;;5045003;28;20057;-70
2022/03/22 03:00:10;;;;;;;17.98;6.82;;;6.50;99.90;;;;;;5045487;28;20014;-70
2022/03/22 03:02:42;;;;;;;19.50;7.50;;;6.50;99.90;;;;;;5043443;28;20036;-70
2022/03/22 03:05:08;;;;;;;26.58;7.65;;;6.50;99.90;;;;;;5041070;28;20097;-70
2022/03/22 03:07:34;;;;;;;17.85;8.00;;;6.40;99.90;;;;;;5044068;28;20037;-69
2022/03/22 03:10:01;;;;;;;20.40;8.57;;;6.40;99.90;;;;;;5033827;28;20393;-71
2022/03/22 03:12:27;;;;;;;16.83;7.65;;;6.50;99.90;;;;;;5025288;28;20030;-71
2022/03/22 03:14:53;;;;;;;19.23;8.15;;;6.40;99.90;;;;;;5024918;28;20032;-72
2022/03/22 03:17:18;;;;;;;20.30;8.05;;;6.40;99.90;;;;;;5025329;28;20065;-70
2022/03/22 03:19:50;;;;;;;20.05;7.50;;;6.40;99.90;;;;;;5035025;28;20505;-71
2022/03/22 03:22:16;;;;;;;19.35;7.20;;;6.40;99.90;;;;;;5044511;28;20029;-70
2022/03/22 03:24:41;;;;;;;18.10;7.40;;;6.40;99.90;;;;;;5045409;28;20449;-71
2022/03/22 03:27:07;;;;;;;26.88;7.57;;;6.30;99.90;;;;;;5044885;28;20072;-71
2022/03/22 03:29:32;;;;;;;25.85;7.43;;;6.40;99.90;;;;;;5044667;28;20034;-69
2022/03/22 03:32:09;;;;;;;23.77;8.70;;;6.30;99.90;;;;;;5045191;28;20018;-72
2022/03/22 03:34:36;;;;;;;17.15;7.32;;;6.30;99.90;;;;;;5044194;28;20036;-70
2022/03/22 03:37:01;;;;;;;23.63;8.32;;;6.30;99.90;;;;;;5044525;28;20033;-70
2022/03/22 03:39:30;;;;;;;21.30;7.38;;;6.40;99.90;;;;;;5044538;28;20029;-71
2022/03/22 03:41:57;;;;;;;17.15;7.82;;;6.30;99.90;;;;;;5044464;28;20033;-70
2022/03/22 03:47:14;;;;;;;22.38;8.43;;;6.20;99.90;;;;;;5043312;28;20068;-69
2022/03/22 03:49:48;;;;;;;25.33;8.63;;;6.20;99.90;;;;;;5044296;28;20454;-70
2022/03/22 03:52:20;;;;;;;;;;;6.20;99.90;;;;;;5043783;28;20033;-71
2022/03/22 03:54:46;;;;;;;20.33;8.57;;;6.20;99.90;;;;;;5044114;28;19909;-70
2022/03/22 03:57:12;;;;;;;19.55;8.57;;;6.20;99.90;;;;;;5043635;28;20064;-70
2022/03/22 03:59:39;;;;;;;21.08;9.05;;;6.10;99.90;;;;;;5044927;28;20025;-70
2022/03/22 04:02:10;;;;;;;23.00;9.55;;;6.10;99.90;;;;;;5044225;28;20033;-70
2022/03/22 04:04:37;;;;;;;24.55;9.70;;;6.10;99.90;;;;;;5044619;28;20078;-71
2022/03/22 04:07:07;;;;;;;25.42;9.30;;;6.10;99.90;;;;;;5044443;28;20041;-70
2022/03/22 04:09:34;;;;;;;18.98;7.90;;;6.10;99.90;;;;;;5047082;28;20028;-70
2022/03/22 04:12:00;;;;;;;24.52;9.35;;;6.00;99.90;;;;;;5047425;28;20053;-71
2022/03/22 04:14:27;;;;;;;21.38;9.02;;;6.00;99.90;;;;;;5048662;28;20030;-70
2022/03/22 04:16:56;;;;;;;29.63;9.13;;;5.90;99.90;;;;;;5048383;28;20044;-71
2022/03/22 04:19:22;;;;;;;23.83;8.73;;;5.90;99.90;;;;;;5048341;28;20029;-71
2022/03/22 04:21:48;;;;;;;24.73;8.75;;;5.90;99.90;;;;;;5048487;28;20029;-70
2022/03/22 04:24:14;;;;;;;21.60;9.07;;;5.90;99.90;;;;;;5048298;28;20060;-70
2022/03/22 04:26:42;;;;;;;18.30;8.82;;;5.90;99.90;;;;;;5048371;28;20041;-70
2022/03/22 04:34:57;;;;;;;20.13;7.88;;;5.80;99.90;;;;;;5048059;28;20048;-71
2022/03/22 04:37:24;;;;;;;25.90;8.52;;;5.80;99.90;;;;;;5048214;28;20443;-72
2022/03/22 04:39:50;;;;;;;14.73;7.22;;;5.80;99.90;;;;;;5047214;28;20417;-70
2022/03/22 04:42:15;;;;;;;17.52;8.20;;;5.80;99.90;;;;;;5048218;28;20041;-71
2022/03/22 04:44:43;;;;;;;16.13;7.30;;;5.80;99.90;;;;;;5047546;28;20029;-71
2022/03/22 04:47:09;;;;;;;22.30;8.93;;;5.80;99.90;;;;;;5047600;28;20045;-70
2022/03/22 04:49:35;;;;;;;16.00;6.93;;;5.70;99.90;;;;;;5047854;28;20043;-70
2022/03/22 04:57:29;;;;;;;18.20;7.97;;;5.70;99.90;;;;;;5047612;28;20033;-71
2022/03/22 04:59:55;;;;;;;19.30;8.65;;;5.70;99.90;;;;;;5047739;28;20038;-71
2022/03/22 05:02:22;;;;;;;15.43;7.45;;;5.70;99.90;;;;;;5039593;28;20026;-70
2022/03/22 05:04:47;;;;;;;16.42;8.15;;;5.60;99.90;;;;;;5027498;28;20050;-69
2022/03/22 05:07:13;;;;;;;18.92;7.82;;;5.70;99.90;;;;;;5027685;28;20038;-70
2022/03/22 05:09:38;;;;;;;22.00;7.43;;;5.70;99.90;;;;;;5027627;28;20028;-69
2022/03/22 05:12:04;;;;;;;18.58;7.05;;;5.60;99.90;;;;;;5042435;28;20037;-70
2022/03/22 05:14:35;;;;;;;24.17;7.97;;;5.60;99.90;;;;;;5027882;28;20034;-71
2022/03/22 05:17:00;;;;;;;19.98;7.95;;;5.60;99.90;;;;;;5042588;28;20057;-70
2022/03/22 05:19:27;;;;;;;20.13;6.88;;;5.60;99.90;;;;;;5034379;28;20033;-70
2022/03/22 05:21:53;;;;;;;19.73;7.28;;;5.60;99.90;;;;;;5046706;28;20029;-71
2022/03/22 05:24:19;;;;;;;20.23;6.55;;;5.50;99.90;;;;;;5033343;28;20026;-70
2022/03/22 05:26:49;;;;;;;22.98;9.07;;;5.50;99.90;;;;;;5046895;28;20041;-71
2022/03/22 05:29:17;;;;;;;30.83;7.30;;;5.50;99.90;;;;;;5047365;28;20041;-69
2022/03/22 05:31:42;;;;;;;19.80;7.43;;;5.50;99.90;;;;;;5047095;28;20527;-70
2022/03/22 05:34:08;;;;;;;18.52;7.70;;;5.50;99.90;;;;;;5046944;28;20029;-69
2022/03/22 05:36:34;;;;;;;23.05;7.63;;;5.50;99.90;;;;;;5047112;28;20025;-69
2022/03/22 05:38:59;;;;;;;20.30;7.63;;;5.50;99.90;;;;;;5045607;28;20485;-71
2022/03/22 05:41:25;;;;;;;19.30;8.43;;;5.50;99.90;;;;;;5046734;28;20063;-72
2022/03/22 05:43:52;;;;;;;16.20;8.00;;;5.50;99.90;;;;;;5047169;28;20029;-71
2022/03/22 05:46:18;;;;;;;23.52;8.07;;;5.50;99.90;;;;;;5045187;28;20091;-69
2022/03/22 05:48:47;;;;;;;21.38;8.52;;;5.70;99.90;;;;;;5046828;28;20048;-72
2022/03/22 05:51:14;;;;;;;16.25;7.75;;;5.50;99.90;;;;;;5046782;28;20033;-70
2022/03/22 05:53:39;;;;;;;15.50;7.32;;;5.70;99.90;;;;;;5045167;28;20036;-70
2022/03/22 05:56:05;;;;;;;20.98;8.15;;;5.60;99.90;;;;;;5046627;28;20026;-70
2022/03/22 05:58:32;;;;;;;17.00;7.68;;;5.70;99.90;;;;;;5046670;28;20022;-72
2022/03/22 06:00:57;;;;;;;20.25;7.95;;;5.70;99.90;;;;;;5036028;28;20041;-71
2022/03/22 06:03:24;;;;;;;18.38;7.30;;;5.80;99.90;;;;;;5043881;28;20026;-70
2022/03/22 06:05:51;;;;;;;19.23;8.00;;;5.90;99.90;;;;;;5028378;28;20030;-69
2022/03/22 06:08:16;;;;;;;19.13;8.32;;;5.90;99.90;;;;;;5026581;28;20514;-69
2022/03/22 06:10:42;;;;;;;20.20;7.75;;;6.00;99.90;;;;;;5026487;28;20033;-70
2022/03/22 06:13:17;;;;;;;21.02;8.65;;;6.00;99.90;;;;;;5025256;28;20034;-70
2022/03/22 06:15:43;;;;;;;22.92;7.80;;;6.10;99.90;;;;;;5026041;28;20025;-70
2022/03/22 06:18:11;;;;;;;18.10;7.88;;;6.10;99.90;;;;;;5026115;28;20052;-70
2022/03/22 06:20:39;;;;;;;20.58;8.88;;;6.20;99.90;;;;;;5034098;28;20030;-68
2022/03/22 06:23:07;;;;;;;20.15;8.23;;;6.20;99.90;;;;;;5029975;28;20025;-69
2022/03/22 06:25:34;;;;;;;16.02;7.57;;;6.20;99.90;;;;;;5032376;28;20030;-68
2022/03/22 06:28:00;;;;;;;20.48;7.55;;;6.20;99.90;;;;;;5033065;28;20127;-69
2022/03/22 06:30:26;;;;;;;13.70;7.45;;;6.40;99.90;;;;;;5025415;28;20060;-71
2022/03/22 06:32:55;;;;;;;21.00;7.88;;;6.40;99.90;;;;;;5041769;28;20128;-70
2022/03/22 06:35:23;;;;;;;25.83;7.97;;;6.40;99.90;;;;;;5028689;28;20037;-71
2022/03/22 06:37:52;;;;;;;19.70;7.97;;;6.60;99.90;;;;;;5037966;28;20029;-72
2022/03/22 06:40:27;;;;;;;26.35;9.30;;;6.60;99.90;;;;;;5040968;28;20029;-72
2022/03/22 06:42:53;;;;;;;18.38;8.02;;;6.60;99.90;;;;;;5044862;28;20032;-70
2022/03/22 06:45:19;;;;;;;27.42;8.63;;;6.70;99.90;;;;;;5039287;28;20072;-71
2022/03/22 06:47:46;;;;;;;21.02;8.13;;;6.80;99.90;;;;;;5025068;28;20370;-70
2022/03/22 06:50:14;;;;;;;19.45;8.25;;;6.80;99.90;;;;;;5024593;28;20045;-69
2022/03/22 06:52:41;;;;;;;16.85;7.78;;;6.90;99.90;;;;;;5026775;28;20094;-72
2022/03/22 06:55:08;;;;;;;23.88;8.02;;;6.90;99.90;;;;;;5037443;28;20034;-73
2022/03/22 06:57:35;;;;;;;22.13;9.35;;;7.00;99.90;;;;;;5042927;28;20017;-69
2022/03/22 07:00:08;;;;;;;19.98;8.10;;;7.00;99.90;;;;;;5045217;28;20109;-72
2022/03/22 07:02:35;;;;;;;18.57;6.67;;;7.10;99.90;;;;;;5039027;28;20030;-70
2022/03/22 07:05:02;;;;;;;18.98;8.60;;;7.10;99.90;;;;;;5025120;28;20105;-70
2022/03/22 07:07:27;;;;;;;21.88;8.77;;;7.20;99.90;;;;;;5027002;28;20041;-71
2022/03/22 07:09:53;;;;;;;20.65;7.07;;;7.20;99.90;;;;;;5032821;28;20030;-70
2022/03/22 07:12:18;;;;;;;20.27;8.13;;;7.30;99.90;;;;;;5031586;28;20017;-70
2022/03/22 07:14:44;;;;;;;21.35;7.57;;;7.50;99.90;;;;;;5042779;28;20056;-70
2022/03/22 07:17:10;;;;;;;16.90;7.80;;;7.50;99.90;;;;;;5025504;28;20038;-71
2022/03/22 07:19:37;;;;;;;16.65;7.60;;;7.50;99.90;;;;;;5024878;28;20026;-70
2022/03/22 07:22:03;;;;;;;23.55;8.80;;;7.60;99.90;;;;;;5025522;28;20034;-71
2022/03/22 07:24:29;;;;;;;23.67;8.40;;;7.70;99.90;;;;;;5025247;28;20030;-71
2022/03/22 07:26:56;;;;;;;16.50;6.93;;;7.70;99.90;;;;;;5025324;28;20069;-71
2022/03/22 07:29:22;;;;;;;30.65;8.77;;;7.80;99.90;;;;;;5045011;28;20037;-73
2022/03/22 07:31:47;;;;;;;20.42;7.63;;;7.90;99.90;;;;;;5040323;28;20042;-71
2022/03/22 07:34:16;;;;;;;17.35;7.50;;;7.90;99.90;;;;;;5025047;28;20032;-71
2022/03/22 07:36:43;;;;;;;21.33;7.63;;;7.80;99.90;;;;;;5039565;28;20026;-71
2022/03/22 07:39:10;;;;;;;20.10;8.32;;;7.90;99.90;;;;;;5042734;28;20018;-71
2022/03/22 07:41:36;;;;;;;19.65;7.82;;;8.00;99.90;;;;;;5035817;28;20151;-71
2022/03/22 07:44:03;;;;;;;15.02;6.85;;;8.10;99.90;;;;;;5043807;28;20080;-73
2022/03/22 07:46:29;;;;;;;15.40;7.28;;;8.20;99.90;;;;;;5039213;28;20504;-71
2022/03/22 07:54:26;;;;;;;22.13;8.35;;;8.40;99.90;;;;;;5029949;28;20049;-73
2022/03/22 07:56:53;;;;;;;19.38;7.35;;;8.50;99.90;;;;;;5044107;28;20053;-72
2022/03/22 07:59:19;;;;;;;23.55;8.57;;;8.70;99.90;;;;;;5040960;28;20042;-72
2022/03/22 08:01:44;;;;;;;22.80;7.57;;;8.80;99.90;;;;;;5043400;28;20082;-71
2022/03/22 08:04:17;;;;;;;16.65;8.15;;;9.10;99.90;;;;;;5033676;28;20494;-72
2022/03/22 08:06:43;;;;;;;23.92;8.75;;;9.30;99.90;;;;;;5027623;28;20123;-71
2022/03/22 08:09:08;;;;;;;23.48;8.45;;;9.60;99.90;;;;;;5044394;28;20030;-71
2022/03/22 08:11:34;;;;;;;30.60;8.63;;;9.80;99.90;;;;;;5038644;28;20030;-71
2022/03/22 08:14:01;;;;;;;20.88;8.88;;;10.00;99.90;;;;;;5027454;28;20026;-70
2022/03/22 08:16:29;;;;;;;27.73;8.27;;;10.20;99.90;;;;;;5044287;28;20030;-72
2022/03/22 08:18:54;;;;;;;19.02;7.95;;;10.30;99.90;;;;;;5042885;28;20025;-72
2022/03/22 08:21:30;;;;;;;18.48;8.35;;;10.50;99.90;;;;;;5043922;28;20105;-73
2022/03/22 08:23:56;;;;;;;19.05;8.02;;;10.60;99.90;;;;;;5032010;28;20032;-71
2022/03/22 08:26:23;;;;;;;21.48;8.52;;;10.80;99.90;;;;;;5038811;28;20116;-72
2022/03/22 08:28:49;;;;;;;21.80;8.48;;;11.00;99.90;;;;;;5043634;28;20065;-72
2022/03/22 08:31:15;;;;;;;22.52;8.85;;;11.10;99.90;;;;;;5031643;28;20402;-71
2022/03/22 08:33:41;;;;;;;14.95;6.95;;;11.20;99.90;;;;;;5042016;28;20047;-71
2022/03/22 08:36:07;;;;;;;20.45;9.05;;;11.30;99.90;;;;;;5033606;28;20530;-71
2022/03/22 08:38:33;;;;;;;20.75;8.63;;;11.50;99.90;;;;;;5024424;28;20028;-70
2022/03/22 08:40:58;;;;;;;30.27;9.35;;;11.60;99.90;;;;;;5039305;28;20048;-71
2022/03/22 08:43:25;;;;;;;19.38;8.20;;;11.70;99.90;;;;;;5037869;28;20033;-71
2022/03/22 08:45:52;;;;;;;29.80;9.30;;;11.90;99.90;;;;;;5036000;28;20025;-72
2022/03/22 08:48:18;;;;;;;16.92;8.15;;;12.00;99.90;;;;;;5026653;28;20057;-71
2022/03/22 08:50:49;;;;;;;22.10;7.45;;;12.20;99.90;;;;;;5032723;28;20025;-72
2022/03/22 08:53:16;;;;;;;27.58;10.63;;;12.30;99.90;;;;;;5039519;28;20037;-72
2022/03/22 08:55:44;;;;;;;20.67;9.50;;;12.50;99.90;;;;;;5032897;28;20563;-72
2022/03/22 08:58:10;;;;;;;21.90;8.25;;;12.70;99.90;;;;;;5045800;28;20025;-72
2022/03/22 09:00:36;;;;;;;22.98;9.85;;;12.90;99.90;;;;;;5047012;28;20092;-72
2022/03/22 09:03:03;;;;;;;18.92;7.70;;;13.00;99.90;;;;;;5046163;28;20053;-73
2022/03/22 09:08:13;;;;;;;20.50;8.75;;;13.20;99.90;;;;;;5047339;28;20045;-71
2022/03/22 09:10:40;;;;;;;21.30;9.85;;;13.40;99.90;;;;;;5046173;28;20025;-72
2022/03/22 09:13:07;;;;;;;21.55;8.13;;;13.60;99.90;;;;;;5046201;28;20064;-70
2022/03/22 09:15:38;;;;;;;18.27;7.97;;;13.80;99.90;;;;;;5031706;28;20490;-72
2022/03/22 09:18:05;;;;;;;28.50;9.20;;;13.90;99.90;;;;;;5038402;28;20032;-71
2022/03/22 09:20:32;;;;;;;16.48;8.45;;;14.00;99.90;;;;;;5034629;28;20030;-71
2022/03/22 09:23:00;;;;;;;27.13;9.18;;;14.10;99.90;;;;;;5044419;28;20029;-70
2022/03/22 09:25:27;;;;;;;25.60;9.65;;;14.30;99.90;;;;;;5046411;28;20029;-72
2022/03/22 09:27:54;;;;;;;20.65;8.73;;;14.50;99.90;;;;;;5046469;28;20417;-71
2022/03/22 09:30:20;;;;;;;19.58;9.23;;;14.60;99.90;;;;;;5042788;28;20359;-71
2022/03/22 09:32:47;;;;;;;28.52;9.95;;;14.80;99.90;;;;;;5027112;28;20026;-71
2022/03/22 09:35:19;;;;;;;19.35;9.07;;;15.10;99.90;;;;;;5028087;28;20538;-71
2022/03/22 09:37:48;;;;;;;18.08;8.88;;;15.30;99.90;;;;;;5039186;28;20033;-71
2022/03/22 09:40:17;;;;;;;19.15;7.97;;;15.50;99.90;;;;;;5026149;28;20026;-71
2022/03/22 09:42:45;;;;;;;23.15;9.00;;;15.60;99.60;;;;;;5030308;28;20040;-72
2022/03/22 09:45:14;;;;;;;27.65;9.70;;;15.70;99.60;;;;;;5045174;28;20034;-72
2022/03/22 09:47:42;;;;;;;25.52;9.63;;;15.90;98.70;;;;;;5033411;28;20050;-69
2022/03/22 09:50:09;;;;;;;24.90;8.90;;;16.00;98.70;;;;;;5025766;28;20022;-69
2022/03/22 09:52:36;;;;;;;16.73;8.25;;;16.20;99.30;;;;;;5029831;28;20030;-69
2022/03/22 09:55:03;;;;;;;21.13;9.15;;;16.40;98.70;;;;;;5036791;28;20028;-71
2022/03/22 09:57:29;;;;;;;19.52;8.65;;;16.60;97.40;;;;;;5036595;28;20033;-70
2022/03/22 09:59:54;;;;;;;28.65;10.02;;;16.60;97.70;;;;;;5026576;28;20026;-70
2022/03/22 10:02:29;;;;;;;24.40;9.27;;;16.70;97.60;;;;;;5028987;28;20041;-70
2022/03/22 10:04:54;;;;;;;;;;;17.00;97.50;;;;;;5046373;28;20037;-71
2022/03/22 10:07:21;;;;;;;22.92;8.95;;;17.10;96.00;;;;;;5044309;28;19917;-71
2022/03/22 10:09:58;;;;;;;15.27;8.10;;;17.20;97.50;;;;;;5043236;28;20029;-71
2022/03/22 10:12:35;;;;;;;22.40;9.63;;;17.30;97.50;;;;;;5028920;28;20026;-70
2022/03/22 10:15:16;;;;;;;31.70;9.98;;;17.50;97.50;;;;;;5043937;28;20563;-70
2022/03/22 10:17:43;;;;;;;21.90;9.32;;;17.70;96.70;;;;;;5036664;28;20057;-69
2022/03/22 10:20:21;;;;;;;25.83;9.23;;;17.80;97.30;;;;;;5026023;28;20051;-70
2022/03/22 10:23:01;;;;;;;20.73;8.98;;;17.90;97.10;;;;;;5026386;28;20025;-71
2022/03/22 10:25:31;;;;;;;19.70;8.82;;;18.10;96.40;;;;;;5034216;28;20060;-70
2022/03/22 10:27:58;;;;;;;21.50;9.13;;;18.20;96.50;;;;;;5034717;28;20036;-70
2022/03/22 10:30:24;;;;;;;23.08;9.05;;;18.40;96.30;;;;;;5026274;28;20053;-70
2022/03/22 10:32:51;;;;;;;20.52;9.55;;;18.60;96.50;;;;;;5026015;28;20121;-70
2022/03/22 10:35:29;;;;;;;17.60;8.45;;;18.70;96.50;;;;;;5026199;28;20076;-70
2022/03/22 10:38:00;;;;;;;22.85;9.98;;;18.80;96.40;;;;;;5038013;28;20021;-71
2022/03/22 10:40:33;;;;;;;19.63;9.75;;;19.00;95.30;;;;;;5043562;28;20029;-72
2022/03/22 10:43:10;;;;;;;24.83;9.63;;;19.10;95.30;;;;;;5044713;28;20022;-70
2022/03/22 10:45:43;;;;;;;22.23;9.63;;;19.20;94.80;;;;;;5041187;28;20025;-70
2022/03/22 10:48:09;;;;;;;20.42;9.45;;;19.30;94.70;;;;;;5023850;28;20472;-70
2022/03/22 10:50:38;;;;;;;22.23;8.93;;;19.50;94.30;;;;;;5025916;28;20022;-70
2022/03/22 10:53:05;;;;;;;25.00;9.50;;;19.60;94.10;;;;;;5025866;28;20017;-70
2022/03/22 10:55:31;;;;;;;21.35;9.68;;;19.70;93.40;;;;;;5034340;28;20136;-69
2022/03/22 10:57:59;;;;;;;25.85;10.02;;;19.90;94.00;;;;;;5045500;28;20101;-72
2022/03/22 11:00:27;;;;;;;20.73;9.85;;;20.00;93.50;;;;;;5045294;28;20026;-70
2022/03/22 11:03:00;;;;;;;21.17;9.23;;;20.30;93.70;;;;;;5032541;28;20030;-71
2022/03/22 11:05:27;;;;;;;21.10;8.68;;;20.60;93.10;;;;;;5035651;28;20030;-69
2022/03/22 11:07:54;;;;;;;21.90;9.43;;;20.70;93.30;;;;;;5035621;28;20125;-70
2022/03/22 11:10:29;;;;;;;22.92;9.77;;;21.00;92.40;;;;;;5025409;28;20025;-71
2022/03/22 11:12:59;;;;;;;19.63;8.63;;;21.10;93.50;;;;;;5044113;28;20410;-72
2022/03/22 11:15:29;;;;;;;20.50;8.98;;;21.30;93.40;;;;;;5045105;28;20080;-70
2022/03/22 11:17:56;;;;;;;22.02;8.88;;;21.50;92.40;;;;;;5030275;28;20061;-70
2022/03/22 11:20:25;;;;;;;22.55;9.52;;;21.60;92.40;;;;;;5038542;28;20022;-71
2022/03/22 11:22:54;;;;;;;24.60;10.02;;;21.80;90.20;;;;;;5040256;28;20069;-70
2022/03/22 11:25:32;;;;;;;30.20;10.57;;;21.90;91.60;;;;;;5025225;28;20036;-71
2022/03/22 11:28:04;;;;;;;19.00;9.07;;;22.10;90.70;;;;;;5035673;28;20505;-69
2022/03/22 11:30:31;;;;;;;22.67;8.30;;;22.30;90.70;;;;;;5044836;28;20071;-71
2022/03/22 11:35:59;;;;;;;19.35;9.07;;;22.40;89.80;;;;;;5033654;28;20049;-70
2022/03/22 11:38:47;;;;;;;22.17;9.07;;;22.30;85.00;;;;;;5044743;28;20091;-72
2022/03/22 11:44:29;;;;;;;23.38;9.63;;;22.50;85.00;;;;;;5044864;28;20443;-70
2022/03/22 11:47:11;;;;;;;21.65;8.93;;;22.70;86.00;;;;;;5043112;28;20050;-71
2022/03/22 11:50:04;;;;;;;24.77;9.82;;;22.80;85.50;;;;;;5044805;28;20431;-72
2022/03/22 11:52:32;;;;;;;20.23;9.32;;;22.90;84.00;;;;;;5042440;28;20030;-70
2022/03/22 11:55:06;;;;;;;25.00;10.25;;;22.90;86.40;;;;;;5045231;28;20085;-71
2022/03/22 11:57:51;;;;;;;23.45;9.30;;;23.10;86.10;;;;;;5044726;28;20041;-70
2022/03/22 12:00:43;;;;;;;19.38;9.10;;;23.20;83.00;;;;;;5037700;28;20062;-71
2022/03/22 12:03:10;;;;;;;20.67;9.50;;;23.50;86.10;;;;;;5042966;28;20026;-70
2022/03/22 12:05:36;;;;;;;27.92;10.40;;;23.70;81.10;;;;;;5044343;28;20026;-70
2022/03/22 12:08:06;;;;;;;21.58;9.82;;;23.80;84.70;;;;;;5044421;28;20093;-72
2022/03/22 12:10:32;;;;;;;30.17;10.45;;;24.00;82.80;;;;;;5044521;28;20041;-71
2022/03/22 12:12:58;;;;;;;19.50;9.48;;;24.10;84.20;;;;;;5044334;28;20026;-73
2022/03/22 12:15:24;;;;;;;21.27;8.98;;;24.20;83.20;;;;;;5044526;28;20017;-71
2022/03/22 12:17:50;;;;;;;22.00;10.05;;;24.30;82.30;;;;;;5044627;28;20055;-70
2022/03/22 12:20:19;;;;;;;26.60;9.60;;;24.50;83.30;;;;;;5044103;28;20033;-72
2022/03/22 12:22:50;;;;;;;19.67;9.43;;;24.60;82.70;;;;;;5039414;28;20026;-71
2022/03/22 12:25:19;;;;;;;20.52;9.45;;;24.60;82.90;;;;;;5039856;28;20568;-71
2022/03/22 12:27:57;;;;;;;25.88;9.98;;;24.70;82.50;;;;;;5035257;28;20052;-72
2022/03/22 12:30:28;;;;;;;20.83;9.43;;;24.70;78.30;;;;;;5045878;28;20029;-69
2022/03/22 12:32:59;;;;;;;27.42;9.85;;;24.80;80.00;;;;;;5048271;28;20049;-71
2022/03/22 12:35:26;;;;;;;19.08;9.48;;;24.80;79.80;;;;;;5048423;28;20029;-71
2022/03/22 12:37:54;;;;;;;24.38;9.77;;;25.00;78.50;;;;;;5047175;28;20097;-71
2022/03/22 12:40:22;;;;;;;17.85;8.48;;;25.10;78.90;;;;;;5046717;28;20021;-69
2022/03/22 12:42:50;;;;;;;24.35;9.85;;;25.20;76.80;;;;;;5047944;28;20340;-69
2022/03/22 12:45:17;;;;;;;20.33;8.48;;;25.20;76.10;;;;;;5035842;28;20033;-70
2022/03/22 12:47:44;;;;;;;22.75;9.50;;;25.20;75.70;;;;;;5047263;28;20084;-69
2022/03/22 12:50:12;;;;;;;16.35;8.00;;;25.10;76.90;;;;;;5045118;28;20017;-70
2022/03/22 12:52:40;;;;;;;22.75;9.35;;;25.20;75.90;;;;;;5034658;28;20513;-68
2022/03/22 12:55:11;;;;;;;26.67;8.35;;;25.20;73.40;;;;;;5046959;28;20056;-69
2022/03/22 12:57:41;;;;;;;20.33;8.63;;;25.20;75.20;;;;;;5047822;28;20044;-70
2022/03/22 13:00:08;;;;;;;21.25;9.00;;;25.30;74.80;;;;;;5047789;28;20028;-69
2022/03/22 13:02:38;;;;;;;18.92;8.38;;;25.40;76.00;;;;;;5036626;28;20053;-71
2022/03/22 13:05:04;;;;;;;15.68;7.55;;;25.60;75.10;;;;;;5027594;28;20029;-71
2022/03/22 13:07:29;;;;;;;19.77;8.63;;;25.70;73.80;;;;;;5027537;28;20049;-71
2022/03/22 13:12:42;;;;;;;20.20;7.05;;;26.00;74.20;;;;;;5028018;28;20531;-70
2022/03/22 13:15:08;;;;;;;21.85;8.63;;;26.20;72.00;;;;;;5027320;28;20438;-71
2022/03/22 13:17:36;;;;;;;15.57;7.63;;;26.10;73.30;;;;;;5027388;28;20034;-71
2022/03/22 13:20:06;;;;;;;21.17;7.47;;;26.10;71.00;;;;;;5027601;28;20030;-72
2022/03/22 13:22:34;;;;;;;23.60;8.23;;;26.10;69.30;;;;;;5042833;28;20108;-72